Time;durP1;ratioP1;P1;durP2;ratioP2;P2;SDS_P1;SDS_P2;PMS_P1;PMS_P2;Temp;Humidity;BMP_temperature;BMP_pressure;BME280_temperature;BME280_humidity;BME280_pressure;Samples;Min_cycle;Max_cycle;Signal;HPM_P1;HPM_P2
2023/02/22 00:00:51;;;;;;;192.68;103.93;;;10.30;99.90;;;;;;5014537;28;20071;-76
2023/02/22 00:03:33;;;;;;;197.07;106.30;;;10.30;99.90;;;;;;5015908;28;20060;-76
2023/02/22 00:06:03;;;;;;;203.75;106.75;;;10.30;99.90;;;;;;5028522;28;20052;-76
2023/02/22 00:08:31;;;;;;;198.80;104.55;;;10.30;99.90;;;;;;5032306;28;20036;-76
2023/02/22 00:11:02;;;;;;;209.38;108.70;;;10.30;99.90;;;;;;5014412;28;20026;-76
2023/02/22 00:13:28;;;;;;;187.55;102.13;;;10.30;99.90;;;;;;5011369;28;20036;-76
2023/02/22 00:15:58;;;;;;;188.95;104.97;;;10.30;99.90;;;;;;5032301;28;20029;-76
2023/02/22 00:18:28;;;;;;;199.00;104.70;;;10.30;99.90;;;;;;5032159;28;20049;-76
2023/02/22 00:20:58;;;;;;;194.23;107.45;;;10.30;99.90;;;;;;5010822;28;20513;-76
2023/02/22 00:23:27;;;;;;;199.48;106.10;;;10.20;99.90;;;;;;5032144;28;20029;-77
2023/02/22 00:25:53;;;;;;;195.35;104.32;;;10.20;99.90;;;;;;5047113;28;20030;-76
2023/02/22 00:28:19;;;;;;;206.27;106.18;;;10.20;99.90;;;;;;5032004;28;20036;-76
2023/02/22 00:30:47;;;;;;;195.15;104.13;;;10.20;99.90;;;;;;5020596;28;20029;-76
2023/02/22 00:33:13;;;;;;;201.50;106.78;;;10.20;99.90;;;;;;5028035;28;20022;-76
2023/02/22 00:35:39;;;;;;;204.00;104.70;;;10.20;99.90;;;;;;5022291;28;20036;-76
2023/02/22 00:38:05;;;;;;;193.60;105.72;;;10.20;99.90;;;;;;5032033;28;20026;-76
2023/02/22 00:40:33;;;;;;;201.30;109.45;;;10.10;99.90;;;;;;5031698;28;20029;-76
2023/02/22 00:43:03;;;;;;;204.02;109.38;;;10.20;99.90;;;;;;5031797;28;20033;-76
2023/02/22 00:45:31;;;;;;;198.52;107.45;;;10.20;99.90;;;;;;5031764;28;20030;-76
2023/02/22 00:47:57;;;;;;;197.00;107.47;;;10.20;99.90;;;;;;5031460;28;20029;-76
2023/02/22 00:50:25;;;;;;;205.43;110.05;;;10.20;99.90;;;;;;5030037;28;20033;-76
2023/02/22 00:52:53;;;;;;;200.90;108.60;;;10.20;99.90;;;;;;5029796;28;20045;-76
2023/02/22 00:55:27;;;;;;;200.43;107.78;;;10.20;99.90;;;;;;5026677;28;20028;-76
2023/02/22 00:57:54;;;;;;;197.32;109.10;;;10.20;99.90;;;;;;5008241;28;20069;-76
2023/02/22 01:00:26;;;;;;;199.20;108.32;;;10.10;99.90;;;;;;5009156;28;20034;-76
2023/02/22 01:02:52;;;;;;;202.57;109.88;;;10.10;99.90;;;;;;5017786;28;20029;-76
2023/02/22 01:05:22;;;;;;;208.60;111.80;;;10.10;99.90;;;;;;5030779;28;20079;-76
2023/02/22 01:07:48;;;;;;;204.13;111.38;;;10.10;99.90;;;;;;5030934;28;20119;-76
2023/02/22 01:10:16;;;;;;;211.73;111.63;;;10.10;99.90;;;;;;5030467;28;20037;-76
2023/02/22 01:12:42;;;;;;;203.50;107.88;;;10.10;99.90;;;;;;5030490;28;20112;-76
2023/02/22 01:15:09;;;;;;;210.20;107.22;;;10.10;99.90;;;;;;5029335;28;20108;-76
2023/02/22 01:17:40;;;;;;;197.63;107.55;;;10.10;99.90;;;;;;5029585;28;20033;-76
2023/02/22 01:20:09;;;;;;;197.27;107.72;;;10.10;99.90;;;;;;5030649;28;20586;-76
2023/02/22 01:22:36;;;;;;;204.02;104.65;;;10.10;99.90;;;;;;5021488;28;20030;-76
2023/02/22 01:25:06;;;;;;;203.02;106.80;;;10.10;99.90;;;;;;5030176;28;20060;-76
2023/02/22 01:27:35;;;;;;;202.27;110.43;;;10.10;99.90;;;;;;5045612;28;20430;-76
2023/02/22 01:30:07;;;;;;;200.70;107.10;;;10.10;99.90;;;;;;5019477;28;20061;-76
2023/02/22 01:32:37;;;;;;;206.48;106.28;;;10.10;99.90;;;;;;5023708;28;20044;-76
2023/02/22 01:35:07;;;;;;;195.77;105.53;;;10.10;99.90;;;;;;5031496;28;20029;-76
2023/02/22 01:37:34;;;;;;;206.25;105.22;;;10.10;99.90;;;;;;5022077;28;20033;-76
2023/02/22 01:40:00;;;;;;;200.57;104.93;;;10.10;99.90;;;;;;5027502;28;20036;-76
2023/02/22 01:42:28;;;;;;;205.75;109.95;;;10.10;99.90;;;;;;5031438;28;20060;-76
2023/02/22 01:45:34;;;;;;;204.70;107.32;;;10.00;99.90;;;;;;5031423;28;20108;-76
2023/02/22 01:48:08;;;;;;;212.48;111.03;;;10.00;99.90;;;;;;5028525;28;20461;-76
2023/02/22 01:50:45;;;;;;;211.75;109.00;;;10.00;99.90;;;;;;5010325;28;20038;-76
2023/02/22 01:53:15;;;;;;;201.75;109.50;;;10.00;99.90;;;;;;5046194;28;20041;-76
2023/02/22 01:55:41;;;;;;;213.43;113.82;;;10.10;99.90;;;;;;5035321;28;20272;-76
2023/02/22 01:58:07;;;;;;;203.20;109.90;;;10.10;99.90;;;;;;5035555;28;20132;-76
2023/02/22 02:00:33;;;;;;;207.40;113.88;;;10.10;99.90;;;;;;5034507;28;20029;-77
2023/02/22 02:03:05;;;;;;;202.50;111.65;;;10.10;99.90;;;;;;5013961;28;20374;-76
2023/02/22 02:05:33;;;;;;;201.38;110.32;;;10.10;99.90;;;;;;5035264;28;20060;-76
2023/02/22 02:08:04;;;;;;;203.48;110.75;;;10.10;99.90;;;;;;5035117;28;20037;-76
2023/02/22 02:10:31;;;;;;;201.80;111.73;;;10.10;99.90;;;;;;5034583;28;20451;-77
2023/02/22 02:12:57;;;;;;;204.15;111.13;;;10.10;99.90;;;;;;5034721;28;20389;-76
2023/02/22 02:15:29;;;;;;;208.68;111.18;;;10.10;99.90;;;;;;5027885;28;20022;-76
2023/02/22 02:18:02;;;;;;;201.95;108.20;;;10.10;99.90;;;;;;5025958;28;20025;-76
2023/02/22 02:20:46;;;;;;;218.32;114.72;;;10.10;99.90;;;;;;5017021;28;20121;-76
2023/02/22 02:23:45;;;;;;;204.07;110.20;;;10.10;99.90;;;;;;5024792;28;20072;-76
2023/02/22 02:26:30;;;;;;;201.95;110.13;;;10.10;99.90;;;;;;5031484;28;20128;-76
2023/02/22 02:29:14;;;;;;;202.57;110.15;;;10.10;99.90;;;;;;5029917;28;20071;-76
2023/02/22 02:32:14;;;;;;;200.35;109.18;;;10.10;99.90;;;;;;5027002;28;20030;-76
2023/02/22 02:35:10;;;;;;;208.68;110.00;;;10.10;99.90;;;;;;5032285;28;20018;-77
2023/02/22 02:37:38;;;;;;;206.25;114.35;;;10.10;99.90;;;;;;5028826;28;20064;-76
2023/02/22 02:40:35;;;;;;;208.88;113.18;;;10.10;99.90;;;;;;5030713;28;20480;-76
2023/02/22 02:43:31;;;;;;;209.65;113.53;;;10.10;99.90;;;;;;5012390;28;20261;-76
2023/02/22 02:46:34;;;;;;;204.05;105.70;;;10.10;99.90;;;;;;5015134;28;20032;-76
2023/02/22 02:49:06;;;;;;;205.05;113.82;;;10.10;99.90;;;;;;5007883;28;20568;-76
2023/02/22 02:51:37;;;;;;;206.35;113.45;;;10.10;99.90;;;;;;5033903;28;20018;-76
2023/02/22 02:54:04;;;;;;;210.35;110.90;;;10.10;99.90;;;;;;5030495;28;20029;-76
2023/02/22 02:56:30;;;;;;;198.30;109.68;;;10.10;99.90;;;;;;5033611;28;20034;-76
2023/02/22 02:58:56;;;;;;;224.93;114.32;;;10.10;99.90;;;;;;5033565;28;20061;-76
2023/02/22 03:02:01;;;;;;;210.02;114.55;;;10.10;99.90;;;;;;5015827;28;20057;-76
2023/02/22 03:04:53;;;;;;;197.48;112.65;;;10.20;99.90;;;;;;5012546;28;20041;-76
2023/02/22 03:07:42;;;;;;;212.00;113.80;;;10.20;99.90;;;;;;5031917;28;20021;-76
2023/02/22 03:10:28;;;;;;;207.95;113.68;;;10.20;99.90;;;;;;5010986;28;20117;-77
2023/02/22 03:13:06;;;;;;;209.10;112.05;;;10.20;99.90;;;;;;5032212;28;20025;-76
2023/02/22 03:15:40;;;;;;;200.73;110.47;;;10.20;99.90;;;;;;5030557;28;20045;-76
2023/02/22 03:18:21;;;;;;;195.90;109.78;;;10.20;99.90;;;;;;5033409;28;20026;-76
2023/02/22 03:21:23;;;;;;;215.27;114.43;;;10.10;99.90;;;;;;5033211;28;20029;-76
2023/02/22 03:23:54;;;;;;;205.95;114.05;;;10.20;99.90;;;;;;5026579;28;20124;-76
2023/02/22 03:26:28;;;;;;;201.15;109.57;;;10.20;99.90;;;;;;5032843;28;20030;-76
2023/02/22 03:28:55;;;;;;;205.88;109.75;;;10.10;99.90;;;;;;5032910;28;20473;-77
2023/02/22 03:31:32;;;;;;;203.88;109.57;;;10.20;99.90;;;;;;5015212;28;20505;-76
2023/02/22 03:34:03;;;;;;;201.77;111.32;;;10.20;99.90;;;;;;5032846;28;20105;-76
2023/02/22 03:36:48;;;;;;;202.00;109.75;;;10.20;99.90;;;;;;5032869;28;20473;-76
2023/02/22 03:39:17;;;;;;;206.90;112.05;;;10.20;99.90;;;;;;5012011;28;20029;-76
2023/02/22 03:41:52;;;;;;;199.52;109.57;;;10.20;99.90;;;;;;5032727;28;20388;-77
2023/02/22 03:44:23;;;;;;;202.50;109.63;;;10.20;99.90;;;;;;5029299;28;20052;-76
2023/02/22 03:46:51;;;;;;;198.85;106.30;;;10.10;99.90;;;;;;5015070;28;20029;-76
2023/02/22 03:49:38;;;;;;;204.20;110.85;;;10.10;99.90;;;;;;5014634;28;20032;-76
2023/02/22 03:52:05;;;;;;;204.27;110.60;;;10.10;99.90;;;;;;5031886;28;20056;-76
2023/02/22 03:54:33;;;;;;;206.43;112.20;;;10.10;99.90;;;;;;5047989;28;20037;-76
2023/02/22 03:57:27;;;;;;;194.85;109.03;;;10.10;99.90;;;;;;5020845;28;20025;-76
2023/02/22 03:59:53;;;;;;;202.63;108.47;;;10.00;99.90;;;;;;5027994;28;20092;-76
2023/02/22 04:02:19;;;;;;;200.73;110.20;;;10.10;99.90;;;;;;5027799;28;20025;-76
2023/02/22 04:04:45;;;;;;;202.23;107.32;;;10.00;99.90;;;;;;5028749;28;20060;-76
2023/02/22 04:07:11;;;;;;;194.32;108.43;;;10.10;99.90;;;;;;5014893;28;20060;-76
2023/02/22 04:09:37;;;;;;;205.23;110.50;;;10.10;99.90;;;;;;5032353;28;20053;-76
2023/02/22 04:12:03;;;;;;;200.00;106.35;;;10.10;99.90;;;;;;5032007;28;20043;-76
2023/02/22 04:14:29;;;;;;;201.57;107.85;;;10.10;99.90;;;;;;5032138;28;20024;-76
2023/02/22 04:16:54;;;;;;;195.50;108.40;;;10.00;99.90;;;;;;5031849;28;20381;-77
2023/02/22 04:19:20;;;;;;;198.50;109.20;;;10.00;99.90;;;;;;5032105;28;20500;-76
2023/02/22 04:21:46;;;;;;;195.57;108.00;;;10.00;99.90;;;;;;5031808;28;20030;-76
2023/02/22 04:24:12;;;;;;;196.38;107.43;;;10.00;99.90;;;;;;5022479;28;20025;-76
2023/02/22 04:26:38;;;;;;;199.35;106.38;;;10.00;99.90;;;;;;5031891;28;20485;-76
2023/02/22 04:29:03;;;;;;;193.43;106.90;;;10.00;99.90;;;;;;5032016;28;20089;-76
2023/02/22 04:31:30;;;;;;;196.57;104.90;;;10.00;99.90;;;;;;5025452;28;20061;-76
2023/02/22 04:33:55;;;;;;;204.18;109.25;;;10.00;99.90;;;;;;5012966;28;20027;-76
2023/02/22 04:36:21;;;;;;;205.23;109.15;;;10.00;99.90;;;;;;5022036;28;20029;-76
2023/02/22 04:38:47;;;;;;;196.30;106.53;;;10.00;99.90;;;;;;5031977;28;20381;-76
2023/02/22 04:41:13;;;;;;;191.90;103.43;;;10.00;99.90;;;;;;5031619;28;20099;-77
2023/02/22 04:43:39;;;;;;;192.07;104.05;;;10.00;99.90;;;;;;5031580;28;20052;-76
2023/02/22 04:46:04;;;;;;;191.05;106.75;;;10.00;99.90;;;;;;5013802;28;20040;-76
2023/02/22 04:48:30;;;;;;;190.93;103.63;;;10.00;99.90;;;;;;5014005;28;20021;-76
2023/02/22 04:50:56;;;;;;;196.38;106.75;;;10.00;99.90;;;;;;5031668;28;20034;-76
2023/02/22 04:53:22;;;;;;;186.98;106.70;;;10.00;99.90;;;;;;5014040;28;20501;-76
2023/02/22 04:55:47;;;;;;;193.77;104.15;;;10.00;99.90;;;;;;5031367;28;20029;-76
2023/02/22 04:58:13;;;;;;;195.50;106.95;;;10.00;99.90;;;;;;5010401;28;20141;-76
2023/02/22 05:00:39;;;;;;;195.70;103.68;;;10.00;99.90;;;;;;5007961;28;20433;-76
2023/02/22 05:03:04;;;;;;;184.15;103.88;;;10.00;99.90;;;;;;5008049;28;20033;-77
2023/02/22 05:05:30;;;;;;;192.25;104.63;;;10.00;99.90;;;;;;5019447;28;20041;-76
2023/02/22 05:07:56;;;;;;;187.75;101.60;;;9.90;99.90;;;;;;5002696;28;20040;-76
2023/02/22 05:10:21;;;;;;;196.77;104.13;;;10.00;99.90;;;;;;5011395;28;20519;-76
2023/02/22 05:12:47;;;;;;;180.88;103.18;;;10.00;99.90;;;;;;5021181;28;20053;-76
2023/02/22 05:15:18;;;;;;;186.18;100.82;;;10.00;99.90;;;;;;5019183;28;20022;-77
2023/02/22 05:17:44;;;;;;;177.93;101.07;;;10.00;99.90;;;;;;5010330;28;20566;-76
2023/02/22 05:20:26;;;;;;;190.80;103.15;;;9.90;99.90;;;;;;5011498;28;20110;-77
2023/02/22 05:22:53;;;;;;;195.85;105.25;;;9.90;99.90;;;;;;5011490;28;20029;-76
2023/02/22 05:25:19;;;;;;;186.25;101.47;;;9.90;99.90;;;;;;5011328;28;20083;-76
2023/02/22 05:27:50;;;;;;;189.88;104.13;;;9.90;99.90;;;;;;5012427;28;20030;-77
2023/02/22 05:30:15;;;;;;;182.60;100.13;;;9.90;99.90;;;;;;5019046;28;20037;-77
2023/02/22 05:32:41;;;;;;;183.98;101.45;;;9.90;99.90;;;;;;5011459;28;20034;-77
2023/02/22 05:35:07;;;;;;;179.45;100.30;;;9.90;99.90;;;;;;5015590;28;20022;-76
2023/02/22 05:37:33;;;;;;;188.88;102.88;;;9.90;99.90;;;;;;5015793;28;20313;-76
2023/02/22 05:39:58;;;;;;;181.85;99.32;;;9.90;99.90;;;;;;5015861;28;20022;-76
2023/02/22 05:42:24;;;;;;;185.32;100.85;;;9.90;99.90;;;;;;5015873;28;20097;-76
2023/02/22 05:44:50;;;;;;;183.30;100.93;;;9.90;99.90;;;;;;5015983;28;20022;-76
2023/02/22 05:47:15;;;;;;;185.90;101.20;;;9.90;99.90;;;;;;5015857;28;20394;-76
2023/02/22 05:49:41;;;;;;;186.27;99.40;;;9.90;99.90;;;;;;5015293;28;20389;-77
2023/02/22 05:52:07;;;;;;;186.95;102.22;;;9.90;99.90;;;;;;5006368;28;20561;-76
2023/02/22 05:54:32;;;;;;;190.00;100.22;;;9.90;99.90;;;;;;5021779;28;20509;-77
2023/02/22 05:56:58;;;;;;;190.50;100.78;;;9.90;99.90;;;;;;5014851;28;20026;-76
2023/02/22 05:59:24;;;;;;;186.05;100.78;;;9.90;99.90;;;;;;5032511;28;20051;-76
2023/02/22 06:01:49;;;;;;;191.05;102.88;;;9.90;99.90;;;;;;5026251;28;20448;-77
2023/02/22 06:04:15;;;;;;;192.05;101.13;;;9.90;99.90;;;;;;5017067;28;20568;-76
2023/02/22 06:06:40;;;;;;;187.07;101.07;;;9.90;99.90;;;;;;5024606;28;20033;-76
2023/02/22 06:09:06;;;;;;;192.98;103.60;;;9.90;99.90;;;;;;5014948;28;20087;-76
2023/02/22 06:11:32;;;;;;;186.50;99.72;;;9.90;99.90;;;;;;5035051;28;20047;-76
2023/02/22 06:13:57;;;;;;;181.75;99.57;;;9.90;99.90;;;;;;5017766;28;20029;-77
2023/02/22 06:16:23;;;;;;;188.70;97.95;;;9.90;99.90;;;;;;5035914;28;20022;-76
2023/02/22 06:18:49;;;;;;;184.13;101.50;;;9.90;99.90;;;;;;5034547;28;20178;-76
2023/02/22 06:21:16;;;;;;;180.32;99.78;;;9.90;99.90;;;;;;5035525;28;20021;-77
2023/02/22 06:23:41;;;;;;;191.02;102.28;;;9.80;99.90;;;;;;5034094;28;20024;-76
2023/02/22 06:26:07;;;;;;;183.23;99.57;;;9.80;99.90;;;;;;5035493;28;20029;-76
2023/02/22 06:28:33;;;;;;;189.57;99.70;;;9.90;99.90;;;;;;5034104;28;20116;-76
2023/02/22 06:30:58;;;;;;;190.38;101.53;;;9.90;99.90;;;;;;5020526;28;20021;-76
2023/02/22 06:33:24;;;;;;;185.07;101.22;;;9.80;99.90;;;;;;5020441;28;20484;-76
2023/02/22 06:35:49;;;;;;;189.75;98.75;;;9.90;99.90;;;;;;5015527;28;20599;-76
2023/02/22 06:38:26;;;;;;;184.48;101.25;;;9.80;99.90;;;;;;5015036;28;20512;-76
2023/02/22 06:40:54;;;;;;;180.10;97.85;;;9.90;99.90;;;;;;5011411;28;20493;-76
2023/02/22 06:43:20;;;;;;;181.13;97.78;;;9.90;99.90;;;;;;5017627;28;20029;-76
2023/02/22 06:45:46;;;;;;;190.27;100.57;;;9.90;99.90;;;;;;5017568;28;20105;-76
2023/02/22 06:48:12;;;;;;;181.15;98.85;;;9.90;99.90;;;;;;5017158;28;20425;-76
2023/02/22 06:50:41;;;;;;;187.98;99.72;;;9.90;99.90;;;;;;5016820;28;20029;-76
2023/02/22 06:53:07;;;;;;;181.10;100.90;;;9.90;99.90;;;;;;5034421;28;20021;-81
2023/02/22 06:55:34;;;;;;;180.30;98.07;;;9.90;99.90;;;;;;5033358;28;20017;-81
2023/02/22 06:58:00;;;;;;;189.90;100.20;;;9.90;99.90;;;;;;5033652;28;20053;-81
2023/02/22 07:00:28;;;;;;;186.05;98.10;;;9.90;99.90;;;;;;5018623;28;20112;-81
2023/02/22 07:02:54;;;;;;;181.88;99.22;;;10.00;99.90;;;;;;5021374;28;20029;-81
2023/02/22 07:05:22;;;;;;;187.18;99.30;;;9.90;99.90;;;;;;5033514;28;20035;-81
2023/02/22 07:07:51;;;;;;;188.18;100.28;;;9.90;99.90;;;;;;5033140;28;20057;-81
2023/02/22 07:10:23;;;;;;;188.82;101.03;;;10.00;99.90;;;;;;5024329;28;20033;-81
2023/02/22 07:12:51;;;;;;;188.43;101.63;;;9.90;99.90;;;;;;5029471;28;20103;-81
2023/02/22 07:15:17;;;;;;;184.80;100.80;;;10.00;99.90;;;;;;5015321;28;20397;-80
2023/02/22 07:17:43;;;;;;;185.35;100.68;;;10.00;99.90;;;;;;5033945;28;20025;-81
2023/02/22 07:20:10;;;;;;;182.82;100.57;;;10.00;99.90;;;;;;5034586;28;20029;-81
2023/02/22 07:22:37;;;;;;;190.18;101.47;;;10.00;99.90;;;;;;5016538;28;20401;-81
2023/02/22 07:25:04;;;;;;;188.75;100.97;;;10.00;99.90;;;;;;5034200;28;20025;-81
2023/02/22 07:27:30;;;;;;;183.65;99.57;;;10.00;99.90;;;;;;5015837;28;20163;-81
2023/02/22 07:29:56;;;;;;;189.60;102.13;;;10.10;99.90;;;;;;5014299;28;20112;-81
2023/02/22 07:32:22;;;;;;;191.50;99.45;;;10.10;99.90;;;;;;5032586;28;20068;-81
2023/02/22 07:34:47;;;;;;;180.98;96.88;;;10.00;99.90;;;;;;5030486;28;20033;-81
2023/02/22 07:37:13;;;;;;;187.75;98.05;;;10.00;99.90;;;;;;5033471;28;20104;-81
2023/02/22 07:39:41;;;;;;;187.13;101.45;;;10.10;99.90;;;;;;5033257;28;20026;-81
2023/02/22 07:42:06;;;;;;;189.90;101.43;;;10.10;99.90;;;;;;5032924;28;20030;-81
2023/02/22 07:44:32;;;;;;;188.65;101.45;;;10.10;99.90;;;;;;5033309;28;20028;-81
2023/02/22 07:46:57;;;;;;;181.57;100.75;;;10.10;99.90;;;;;;5033143;28;20036;-81
2023/02/22 07:49:23;;;;;;;181.95;101.22;;;10.20;99.90;;;;;;5015107;28;20029;-81
2023/02/22 07:51:49;;;;;;;187.55;102.43;;;10.20;99.90;;;;;;5032526;28;20449;-81
2023/02/22 07:54:15;;;;;;;189.55;100.68;;;10.20;99.90;;;;;;5032958;28;20489;-81
2023/02/22 07:56:45;;;;;;;193.65;103.82;;;10.20;99.90;;;;;;5033058;28;20026;-81
2023/02/22 07:59:11;;;;;;;189.80;101.85;;;10.30;99.90;;;;;;5023895;28;20452;-81
2023/02/22 08:01:37;;;;;;;192.20;101.72;;;10.30;99.90;;;;;;5014953;28;20074;-81
2023/02/22 08:04:02;;;;;;;192.25;106.90;;;10.40;99.90;;;;;;5013470;28;20048;-81
2023/02/22 08:06:28;;;;;;;199.60;105.80;;;10.30;99.90;;;;;;5032953;28;20025;-81
2023/02/22 08:08:54;;;;;;;198.20;104.03;;;10.40;99.90;;;;;;5032764;28;20022;-78
2023/02/22 08:11:20;;;;;;;200.45;109.88;;;10.40;99.90;;;;;;5032433;28;20030;-78
2023/02/22 08:13:46;;;;;;;198.80;108.60;;;10.50;99.90;;;;;;5032890;28;20022;-78
2023/02/22 08:16:11;;;;;;;207.50;107.13;;;10.50;99.90;;;;;;5032804;28;20056;-78
2023/02/22 08:18:37;;;;;;;202.07;112.43;;;10.60;99.90;;;;;;5015402;28;20076;-78
2023/02/22 08:21:03;;;;;;;206.38;110.55;;;10.60;99.90;;;;;;5015691;28;20057;-78
2023/02/22 08:23:30;;;;;;;200.30;107.85;;;10.60;99.90;;;;;;5015693;28;20088;-78
2023/02/22 08:25:56;;;;;;;208.07;111.30;;;10.70;99.90;;;;;;5033232;28;20021;-78
2023/02/22 08:28:23;;;;;;;215.98;113.88;;;10.70;99.90;;;;;;5031961;28;20079;-78
2023/02/22 08:30:51;;;;;;;206.30;109.88;;;10.80;99.90;;;;;;5026331;28;20108;-78
2023/02/22 08:33:18;;;;;;;215.05;115.50;;;10.80;99.90;;;;;;5012810;28;20026;-78
2023/02/22 08:35:45;;;;;;;208.48;114.20;;;10.80;99.90;;;;;;5031680;28;20017;-78
2023/02/22 08:38:18;;;;;;;217.10;114.43;;;10.80;99.90;;;;;;5023180;28;20030;-78
2023/02/22 08:40:43;;;;;;;211.95;111.20;;;10.80;99.90;;;;;;5011019;28;20120;-78
2023/02/22 08:43:09;;;;;;;205.20;114.40;;;10.80;99.90;;;;;;5031967;28;20117;-78
2023/02/22 08:45:35;;;;;;;209.40;113.70;;;10.80;99.90;;;;;;5010616;28;20049;-78
2023/02/22 08:48:01;;;;;;;213.00;112.72;;;10.80;99.90;;;;;;5032244;28;20464;-78
2023/02/22 08:50:29;;;;;;;219.70;114.40;;;10.90;99.90;;;;;;5031954;28;20056;-78
2023/02/22 08:52:58;;;;;;;215.50;115.22;;;10.90;99.90;;;;;;5028620;28;20079;-78
2023/02/22 08:55:30;;;;;;;208.65;109.50;;;10.90;99.90;;;;;;5013900;28;20029;-78
2023/02/22 08:57:56;;;;;;;211.02;108.88;;;11.00;99.90;;;;;;5018466;28;20517;-78
2023/02/22 09:00:24;;;;;;;205.25;111.40;;;11.00;99.90;;;;;;5014612;28;20041;-78
2023/02/22 09:02:50;;;;;;;206.15;112.03;;;11.10;99.90;;;;;;5019282;28;20429;-78
2023/02/22 09:05:16;;;;;;;216.98;117.13;;;11.10;99.90;;;;;;5016227;28;20037;-78
2023/02/22 09:07:42;;;;;;;215.85;115.75;;;11.20;99.90;;;;;;5015991;28;20030;-78
2023/02/22 09:10:14;;;;;;;210.90;112.45;;;11.20;99.90;;;;;;5014821;28;20108;-78
2023/02/22 09:12:40;;;;;;;205.50;113.50;;;11.30;99.90;;;;;;5015896;28;20025;-78
2023/02/22 09:15:06;;;;;;;210.90;113.40;;;11.30;99.90;;;;;;5015837;28;20100;-78
2023/02/22 09:17:36;;;;;;;215.27;113.72;;;11.40;99.90;;;;;;5015975;28;20022;-78
2023/02/22 09:20:02;;;;;;;200.27;109.20;;;11.50;99.90;;;;;;5015938;28;20485;-78
2023/02/22 09:22:28;;;;;;;205.38;112.10;;;11.50;99.90;;;;;;5023385;28;20025;-78
2023/02/22 09:24:54;;;;;;;204.25;109.55;;;11.60;99.90;;;;;;5007144;28;20032;-78
2023/02/22 09:27:19;;;;;;;208.45;114.13;;;11.60;99.90;;;;;;5015939;28;20116;-77
2023/02/22 09:29:47;;;;;;;210.40;105.22;;;11.70;99.90;;;;;;5015937;28;20057;-78
2023/02/22 09:32:16;;;;;;;197.30;98.68;;;11.70;99.90;;;;;;5012133;28;20029;-78
2023/02/22 09:34:44;;;;;;;199.90;101.35;;;11.70;99.90;;;;;;5015880;28;20029;-78
2023/02/22 09:37:11;;;;;;;194.35;98.68;;;11.80;99.90;;;;;;5015908;28;20018;-78
2023/02/22 09:39:38;;;;;;;201.50;100.90;;;11.90;99.90;;;;;;5014357;28;20037;-78
2023/02/22 09:42:10;;;;;;;197.35;96.50;;;11.90;99.90;;;;;;5015532;28;20025;-78
2023/02/22 09:44:48;;;;;;;180.43;91.85;;;12.00;99.90;;;;;;5010430;28;20038;-78
2023/02/22 09:47:18;;;;;;;183.38;93.75;;;12.00;99.90;;;;;;5014452;28;20124;-78
2023/02/22 09:49:57;;;;;;;191.55;93.25;;;12.00;99.90;;;;;;5012295;28;20393;-78
2023/02/22 09:52:38;;;;;;;185.65;92.95;;;12.00;99.90;;;;;;5015746;28;20037;-78
2023/02/22 09:55:27;;;;;;;181.98;91.15;;;12.00;99.90;;;;;;5015241;28;20104;-78
2023/02/22 09:57:56;;;;;;;178.65;93.55;;;12.00;99.90;;;;;;5020189;28;20103;-78
2023/02/22 10:00:42;;;;;;;175.15;94.05;;;12.00;99.90;;;;;;5010618;28;20053;-77
2023/02/22 10:03:11;;;;;;;182.90;93.47;;;12.00;99.90;;;;;;5033923;28;20021;-78
2023/02/22 10:05:40;;;;;;;170.52;91.82;;;12.00;99.90;;;;;;5026000;28;20030;-77
2023/02/22 10:08:17;;;;;;;166.77;90.68;;;12.10;99.90;;;;;;5034894;28;20477;-78
2023/02/22 10:10:45;;;;;;;166.88;89.32;;;12.00;99.90;;;;;;5031686;28;20021;-78
2023/02/22 10:13:16;;;;;;;173.60;87.35;;;12.10;99.90;;;;;;5025165;28;20279;-78
2023/02/22 10:15:51;;;;;;;177.07;88.90;;;12.20;99.90;;;;;;5034717;28;20021;-77
2023/02/22 10:18:31;;;;;;;176.20;86.30;;;12.20;99.90;;;;;;5017205;28;20026;-78
2023/02/22 10:21:23;;;;;;;164.52;84.75;;;12.30;99.90;;;;;;5028859;28;20445;-78
2023/02/22 10:23:58;;;;;;;179.37;84.33;;;12.40;99.90;;;;;;5003878;28;20448;-78
2023/02/22 10:26:52;;;;;;;161.95;81.50;;;12.40;99.90;;;;;;5034163;28;20268;-78
2023/02/22 10:29:42;;;;;;;156.05;83.05;;;12.40;99.90;;;;;;5029718;28;20033;-77
2023/02/22 10:32:17;;;;;;;159.85;81.70;;;12.50;99.90;;;;;;5029054;28;20018;-77
2023/02/22 10:34:53;;;;;;;167.45;82.53;;;12.40;99.90;;;;;;5034332;28;20025;-78
2023/02/22 10:37:26;;;;;;;174.05;85.30;;;12.40;99.90;;;;;;5034472;28;20021;-77
2023/02/22 10:40:05;;;;;;;170.82;81.07;;;12.40;99.90;;;;;;5034442;28;20091;-78
2023/02/22 10:42:30;;;;;;;173.82;84.47;;;12.40;99.90;;;;;;5034462;28;20036;-78
2023/02/22 10:44:56;;;;;;;178.63;88.45;;;12.40;99.90;;;;;;5034300;28;20104;-77
2023/02/22 10:47:23;;;;;;;172.15;88.22;;;12.50;99.90;;;;;;5034292;28;20397;-77
2023/02/22 10:49:57;;;;;;;172.80;86.22;;;12.50;99.90;;;;;;5034332;28;20034;-77
2023/02/22 10:52:28;;;;;;;173.25;87.00;;;12.50;99.90;;;;;;5016865;28;20025;-78
2023/02/22 10:54:57;;;;;;;175.70;92.03;;;12.60;99.90;;;;;;5027565;28;20051;-78
2023/02/22 10:57:32;;;;;;;178.27;84.40;;;12.60;99.90;;;;;;5015846;28;20112;-78
2023/02/22 11:00:18;;;;;;;167.48;84.05;;;12.60;99.90;;;;;;5029649;28;20079;-77
2023/02/22 11:03:00;;;;;;;172.20;87.57;;;12.60;99.90;;;;;;5030037;28;20057;-77
2023/02/22 11:05:38;;;;;;;167.75;90.47;;;12.70;99.90;;;;;;5033753;28;20053;-77
2023/02/22 11:08:25;;;;;;;179.10;90.00;;;12.70;99.90;;;;;;5031340;28;20026;-78
2023/02/22 11:11:00;;;;;;;180.77;89.68;;;12.70;99.90;;;;;;5030212;28;20034;-77
2023/02/22 11:13:31;;;;;;;175.57;88.82;;;12.80;99.90;;;;;;5023539;28;20427;-77
2023/02/22 11:16:16;;;;;;;178.40;93.57;;;12.80;99.90;;;;;;5033403;28;20481;-77
2023/02/22 11:18:41;;;;;;;176.07;90.28;;;12.70;99.90;;;;;;5030762;28;20026;-77
2023/02/22 11:21:11;;;;;;;176.52;88.47;;;12.80;99.90;;;;;;5033526;28;20032;-77
2023/02/22 11:23:40;;;;;;;176.77;88.60;;;12.70;99.90;;;;;;5048849;28;20481;-78
2023/02/22 11:26:15;;;;;;;177.38;88.25;;;12.80;99.90;;;;;;5032431;28;20028;-77
2023/02/22 11:28:54;;;;;;;177.05;88.47;;;12.80;99.90;;;;;;5033328;28;20026;-77
2023/02/22 11:31:25;;;;;;;168.30;87.00;;;12.80;99.90;;;;;;5022921;28;20401;-77
2023/02/22 11:33:54;;;;;;;173.93;89.22;;;12.80;99.90;;;;;;5032393;28;20424;-77
2023/02/22 11:36:40;;;;;;;171.07;86.55;;;12.80;99.90;;;;;;5033066;28;20022;-78
2023/02/22 11:39:27;;;;;;;166.38;87.80;;;12.80;99.90;;;;;;5029791;28;20366;-77
2023/02/22 11:41:55;;;;;;;176.52;87.05;;;12.90;99.90;;;;;;5029338;28;20029;-77
2023/02/22 11:44:24;;;;;;;161.82;83.18;;;13.00;99.90;;;;;;5032961;28;20108;-77
2023/02/22 11:46:52;;;;;;;169.30;83.03;;;13.00;99.90;;;;;;5033080;28;20103;-77
2023/02/22 11:49:18;;;;;;;163.88;83.32;;;13.00;99.90;;;;;;5019070;28;20093;-77
2023/02/22 11:51:57;;;;;;;164.38;81.28;;;13.10;99.90;;;;;;5015508;28;20171;-77
2023/02/22 11:54:43;;;;;;;163.52;80.68;;;13.10;99.90;;;;;;5048044;28;20017;-77
2023/02/22 11:57:36;;;;;;;168.57;79.28;;;13.10;99.90;;;;;;5032483;28;20017;-77
2023/02/22 12:00:31;;;;;;;158.07;78.47;;;13.10;99.90;;;;;;5028114;28;20033;-77
2023/02/22 12:03:25;;;;;;;162.65;78.90;;;13.10;99.90;;;;;;5027631;28;20124;-77
2023/02/22 12:06:01;;;;;;;167.32;81.93;;;13.10;99.90;;;;;;5013304;28;20041;-77
2023/02/22 12:09:01;;;;;;;157.98;80.82;;;13.10;99.90;;;;;;5032101;28;20089;-77
2023/02/22 12:11:37;;;;;;;157.90;79.63;;;13.10;99.90;;;;;;5030756;28;20091;-77
2023/02/22 12:14:18;;;;;;;153.23;77.38;;;13.10;99.90;;;;;;5029243;28;20033;-77
2023/02/22 12:17:08;;;;;;;153.00;77.60;;;13.10;99.90;;;;;;5032622;28;20025;-77
2023/02/22 12:20:00;;;;;;;149.40;76.70;;;13.00;99.90;;;;;;5028509;28;20036;-77
2023/02/22 12:22:35;;;;;;;153.13;79.40;;;13.10;99.90;;;;;;5029573;28;20026;-77
2023/02/22 12:25:24;;;;;;;174.18;83.40;;;13.00;99.90;;;;;;5032437;28;20036;-77
2023/02/22 12:28:18;;;;;;;153.85;77.18;;;13.10;99.90;;;;;;5031390;28;20030;-77
2023/02/22 12:30:51;;;;;;;159.23;77.88;;;13.10;99.90;;;;;;5022697;28;20505;-77
2023/02/22 12:33:26;;;;;;;155.45;78.85;;;13.10;99.90;;;;;;5028127;28;20022;-77